Costa Favolosa — ICPK — position and weather

sailwx.info

Track history (hours):
 
Tides and Currents Weather Stations Pressure Air Temp Water Temp Dewpoint Dewpoint Depression Visibility Wind Speed Wind Dir Waves Ship Positions

Costa Favolosa

Last reported at 2017-Oct-20 19:30 UTC. Time now 2017-Oct-20 19:50 UTC.
Position N 43°13' E 009°26'.

Length 291 m; draft 8.3 m.

Type: Ship. MMSI: 247311100.

Date/timePositionNaut miles runAvg speedWind from/ knotsBaromVisibWave heightAir tempDewpointWater temp
2017-Oct-20 19:30N 43°13' E 009°26'917.9
2017-Oct-20 19:00N 43°20' E 009°20'917.5
2017-Oct-20 18:30N 43°28' E 009°14'917.5
2017-Oct-20 18:00N 43°35' E 009°08'917.7
2017-Oct-20 17:30N 43°43' E 009°02'918.0
2017-Oct-20 17:00N 43°51' E 008°56'917.7
2017-Oct-20 16:30N 43°58' E 008°50'917.6
2017-Oct-20 16:00N 44°06' E 008°44'917.8
2017-Oct-20 15:30N 44°14' E 008°37'714.4
2017-Oct-20 15:01N 44°19' E 008°31'1 1.0
2017-Oct-20 13:58N 44°19' E 008°29'0 0.0
2017-Oct-20 13:28N 44°19' E 008°29'0 0.0
2017-Oct-20 13:00N 44°19' E 008°29'0 0.0
2017-Oct-20 12:30N 44°19' E 008°29'0 0.0
2017-Oct-20 12:00N 44°19' E 008°29'0 0.0
2017-Oct-20 11:29N 44°19' E 008°29'0 0.0
2017-Oct-20 10:59N 44°19' E 008°29'0 0.0
2017-Oct-20 10:26N 44°19' E 008°29'0 0.0
2017-Oct-20 09:58N 44°19' E 008°29'0 0.0
2017-Oct-20 09:28N 44°19' E 008°29'0 0.0
2017-Oct-20 08:58N 44°19' E 008°29'0 0.0
2017-Oct-20 08:28N 44°19' E 008°29'0 0.0
2017-Oct-20 07:58N 44°19' E 008°29'0 0.0
2017-Oct-20 07:30N 44°19' E 008°29'0 0.0
2017-Oct-20 07:00N 44°19' E 008°29'0 0.0
2017-Oct-20 06:30N 44°19' E 008°29'1 1.9
2017-Oct-20 06:01N 44°19' E 008°30'4 8.1
2017-Oct-20 05:30N 44°16' E 008°33'612.9
2017-Oct-20 05:01N 44°10' E 008°31'814.9
2017-Oct-20 04:30N 44°03' E 008°25'816.8
2017-Oct-20 04:00N 43°56' E 008°20'1216.4
2017-Oct-20 03:15N 43°47' E 008°07'516.3
2017-Oct-20 02:57N 43°44' E 008°02'2916.8
2017-Oct-20 01:13N 43°27' E 007°30'417.2
2017-Oct-20 01:00N 43°25' E 007°26'917.4
2017-Oct-20 00:30N 43°19' E 007°16'917.1
2017-Oct-19 23:57N 43°14' E 007°06'7114.3
2017-Oct-19 19:00N 43°03' E 005°30'815.4
2017-Oct-19 18:30N 43°06' E 005°20'815.7
2017-Oct-19 18:00N 43°10' E 005°10'715.1
2017-Oct-19 17:30N 43°17' E 005°11'714.4
2017-Oct-19 17:00N 43°21' E 005°19'1 1.3
2017-Oct-19 16:30N 43°21' E 005°20'0 0.0
2017-Oct-19 16:00N 43°21' E 005°20'0 0.0
2017-Oct-19 15:27N 43°21' E 005°20'0 0.0
2017-Oct-19 15:00N 43°21' E 005°20'0 0.0
2017-Oct-19 14:27N 43°21' E 005°20'0 0.0
2017-Oct-19 14:00N 43°21' E 005°20'0 0.0
2017-Oct-19 13:15N 43°21' E 005°20'0 0.0
2017-Oct-19 12:57N 43°21' E 005°20'0 0.0
2017-Oct-19 12:24N 43°21' E 005°20'0 0.0
2017-Oct-19 11:57N 43°21' E 005°20'0 0.0
2017-Oct-19 11:27N 43°21' E 005°20'0 0.0
2017-Oct-19 11:00N 43°21' E 005°20'0 0.0
2017-Oct-19 10:27N 43°21' E 005°20'0 0.0
2017-Oct-19 10:00N 43°21' E 005°20'0 0.0
2017-Oct-19 09:30N 43°21' E 005°20'0 0.0
2017-Oct-19 09:00N 43°21' E 005°20'0 0.0
2017-Oct-19 08:30N 43°21' E 005°20'0 0.0
2017-Oct-19 07:48N 43°21' E 005°20'0 0.0
2017-Oct-19 07:30N 43°21' E 005°20'0 0.0
2017-Oct-19 06:45N 43°21' E 005°20'0 0.0
2017-Oct-19 06:27N 43°21' E 005°20'0 0.0
2017-Oct-19 06:00N 43°21' E 005°20'0 0.6
2017-Oct-19 05:28N 43°21' E 005°19'3 7.4
2017-Oct-19 05:00N 43°19' E 005°15'612.6
2017-Oct-19 04:30N 43°14' E 005°10'815.9
2017-Oct-19 04:00N 43°08' E 005°04'816.7
2017-Oct-19 03:30N 43°01' E 004°57'816.8
2017-Oct-19 03:01N 42°55' E 004°49'611.8
2017-Oct-19 02:30N 42°51' E 004°44'611.5
2017-Oct-19 02:01N 42°46' E 004°38'611.4
2017-Oct-19 01:30N 42°42' E 004°32'816.1
2017-Oct-19 01:00N 42°37' E 004°24'917.2
2017-Oct-19 00:30N 42°31' E 004°16'11417.5
2017-Oct-18 18:00N 41°17' E 002°19'7 0.6
2017-Oct-18 05:49N 41°19' E 002°10'3 9.0
2017-Oct-18 05:29N 41°16' E 002°12'18211.3
2017-Oct-17 13:18N 41°18' E 006°15'411.2
2017-Oct-17 12:57N 41°18' E 006°20'1911.2
2017-Oct-17 11:14N 41°18' E 006°45'1511.6
2017-Oct-17 09:59N 41°18' E 007°05'712.2
2017-Oct-17 09:27N 41°18' E 007°14'812.1
2017-Oct-17 08:47N 41°19' E 007°24'312.3
2017-Oct-17 08:30N 41°19' E 007°29'8913.6
2017-Oct-17 01:58N 41°24' E 009°27'2014.7
2017-Oct-17 00:36N 41°31' E 009°52'1012.2
2017-Oct-16 23:49N 41°35' E 010°04'412.1
2017-Oct-16 23:30N 41°37' E 010°08'712.3
2017-Oct-16 22:58N 41°39' E 010°17'1012.5
2017-Oct-16 22:12N 41°43' E 010°28'312.7
2017-Oct-16 21:59N 41°44' E 010°32'712.7
2017-Oct-16 21:26N 41°47' E 010°40'812.8
2017-Oct-16 20:50N 41°50' E 010°50'512.9
2017-Oct-16 20:26N 41°52' E 010°56'913.1
2017-Oct-16 19:46N 41°55' E 011°07'413.4
2017-Oct-16 19:28N 41°57' E 011°12'613.4
2017-Oct-16 19:00N 41°59' E 011°20'813.2
2017-Oct-16 18:23N 42°02' E 011°30'8 0.6
2017-Oct-16 04:23N 42°05' E 011°20'513.0
2017-Oct-16 04:01N 42°06' E 011°14'812.6
2017-Oct-16 03:23N 42°06' E 011°03'512.8
2017-Oct-16 02:59N 42°06' E 010°56'612.9
2017-Oct-16 02:30N 42°07' E 010°48'613.0
2017-Oct-16 02:00N 42°07' E 010°39'612.9
2017-Oct-16 01:30N 42°08' E 010°30'812.7
2017-Oct-16 00:54N 42°08' E 010°20'512.5
2017-Oct-16 00:30N 42°09' E 010°13'612.5
2017-Oct-16 00:00N 42°09' E 010°05'612.7
2017-Oct-15 23:30N 42°15' E 010°00'918.1
2017-Oct-15 23:00N 42°23' E 009°55'918.2
2017-Oct-15 22:30N 42°31' E 009°50'918.2
2017-Oct-15 22:00N 42°40' E 009°45'918.1
2017-Oct-15 21:30N 42°48' E 009°41'1018.2
2017-Oct-15 20:57N 42°58' E 009°36'817.9
2017-Oct-15 20:30N 43°05' E 009°33'917.9
2017-Oct-15 20:00N 43°13' E 009°26'917.8
2017-Oct-15 19:31N 43°20' E 009°20'917.8
2017-Oct-15 19:00N 43°28' E 009°14'917.7
2017-Oct-15 18:30N 43°35' E 009°07'917.6
2017-Oct-15 18:00N 43°43' E 009°01'917.6
2017-Oct-15 17:30N 43°51' E 008°55'917.5
2017-Oct-15 17:00N 43°58' E 008°49'917.5
2017-Oct-15 16:30N 44°06' E 008°43'917.9
2017-Oct-15 16:00N 44°13' E 008°36'714.1
2017-Oct-15 15:30N 44°19' E 008°30'1 1.8
2017-Oct-15 15:00N 44°19' E 008°29'0 0.0
2017-Oct-15 14:00N 44°19' E 008°29'0 0.0
2017-Oct-15 13:30N 44°19' E 008°29'0 0.0
2017-Oct-15 12:54N 44°19' E 008°29'0 0.0
2017-Oct-15 12:30N 44°19' E 008°29'0 0.0
2017-Oct-15 11:59N 44°19' E 008°29'0 0.0
2017-Oct-15 11:26N 44°19' E 008°29'0 0.0
2017-Oct-15 10:56N 44°19' E 008°29'0 0.0
2017-Oct-15 10:26N 44°19' E 008°29'0 0.0
2017-Oct-15 09:55N 44°19' E 008°29'0 0.0
2017-Oct-15 09:28N 44°19' E 008°29'0 0.0
2017-Oct-15 08:58N 44°19' E 008°29'0 0.0
2017-Oct-15 08:28N 44°19' E 008°29'0 0.0
2017-Oct-15 07:58N 44°19' E 008°29'0 0.0
2017-Oct-15 07:28N 44°19' E 008°29'0 0.0
2017-Oct-15 06:58N 44°19' E 008°29'0 0.0
2017-Oct-15 06:30N 44°19' E 008°29'1 2.1
2017-Oct-15 06:00N 44°19' E 008°31'510.2
2017-Oct-15 05:30N 44°14' E 008°34'917.9
2017-Oct-15 05:00N 44°06' E 008°28'917.8
2017-Oct-15 04:30N 43°59' E 008°22'714.3
2017-Oct-15 04:00N 43°52' E 008°17'713.1
2017-Oct-15 03:30N 43°48' E 008°10'612.8
2017-Oct-15 03:00N 43°45' E 008°03'1012.9
2017-Oct-15 02:13N 43°39' E 007°51'313.2
2017-Oct-15 01:57N 43°37' E 007°47'612.9
2017-Oct-15 01:30N 43°33' E 007°41'712.9
2017-Oct-15 00:56N 43°29' E 007°33'512.8
2017-Oct-15 00:30N 43°25' E 007°27'816.2
2017-Oct-15 00:00N 43°20' E 007°18'1018.0
2017-Oct-14 23:25N 43°14' E 007°06'717.5
2017-Oct-14 23:00N 43°10' E 006°59'917.5
2017-Oct-14 22:30N 43°04' E 006°49'917.3
2017-Oct-14 22:00N 42°59' E 006°40'1016.6
2017-Oct-14 21:24N 42°54' E 006°27'817.0
2017-Oct-14 20:54N 42°53' E 006°16'717.1
2017-Oct-14 20:30N 42°53' E 006°07'917.1
2017-Oct-14 19:59N 42°55' E 005°55'1717.2
2017-Oct-14 19:00N 43°01' E 005°34'1217.6
2017-Oct-14 18:18N 43°07' E 005°19'517.7
2017-Oct-14 18:00N 43°09' E 005°12'714.6
2017-Oct-14 17:30N 43°16' E 005°11'815.1
2017-Oct-14 17:00N 43°21' E 005°18'1 1.8
2017-Oct-14 16:22N 43°21' E 005°20'0 0.0
2017-Oct-14 15:58N 43°21' E 005°20'0 0.0
2017-Oct-14 15:13N 43°21' E 005°20'0 0.0
2017-Oct-14 15:01N 43°21' E 005°20'0 0.0
2017-Oct-14 14:28N 43°21' E 005°20'0 0.0
2017-Oct-14 13:58N 43°21' E 005°20'0 0.0
2017-Oct-14 13:25N 43°21' E 005°20'0 0.0
2017-Oct-14 12:57N 43°21' E 005°20'0 0.0
2017-Oct-14 12:27N 43°21' E 005°20'0 0.0
2017-Oct-14 11:54N 43°21' E 005°20'0 0.0
2017-Oct-14 11:27N 43°21' E 005°20'0 0.0
2017-Oct-14 10:57N 43°21' E 005°20'0 0.0
2017-Oct-14 10:27N 43°21' E 005°20'0 0.0
2017-Oct-14 09:57N 43°21' E 005°20'0 0.0
2017-Oct-14 09:30N 43°21' E 005°20'0 0.0
2017-Oct-14 08:57N 43°21' E 005°20'0 0.0
2017-Oct-14 08:25N 43°21' E 005°20'0 0.0
2017-Oct-14 07:55N 43°21' E 005°20'0 0.0
2017-Oct-14 07:04N 43°21' E 005°20'0 0.0
2017-Oct-14 06:43N 43°21' E 005°20'0 0.1
2017-Oct-14 06:29N 43°21' E 005°20'1 1.2
2017-Oct-14 06:00N 43°21' E 005°19'4 7.4
2017-Oct-14 05:30N 43°19' E 005°15'714.1
2017-Oct-14 05:00N 43°13' E 005°10'917.0
2017-Oct-14 04:27N 43°05' E 005°03'1118.2
2017-Oct-14 03:52N 42°57' E 004°54'818.5
2017-Oct-14 03:25N 42°51' E 004°46'818.6
2017-Oct-14 02:59N 42°45' E 004°39'2419.7
2017-Oct-14 01:45N 42°26' E 004°19'1420.8
2017-Oct-14 01:04N 42°14' E 004°07'220.9
2017-Oct-14 01:00N 42°13' E 004°06'1221.0
2017-Oct-14 00:26N 42°04' E 003°56'8920.9
2017-Oct-13 20:11N 41°13' E 002°19'421.2
2017-Oct-13 19:59N 41°12' E 002°13'1020.9
2017-Oct-13 19:30N 41°08' E 002°01'1020.9
2017-Oct-13 19:00N 41°05' E 001°48'1020.8
2017-Oct-13 18:30N 41°03' E 001°34'4 0.3
2017-Oct-13 04:41N 41°02' E 001°30'317.6
2017-Oct-13 04:30N 41°02' E 001°34'917.7
2017-Oct-13 04:00N 41°02' E 001°46'918.0
2017-Oct-13 03:30N 41°03' E 001°58'5618.0
2017-Oct-13 00:25N 41°06' E 003°11'1717.5
2017-Oct-12 23:27N 41°07' E 003°34'817.8
2017-Oct-12 23:00N 41°07' E 003°44'816.2
2017-Oct-12 22:30N 41°08' E 003°55'712.8
2017-Oct-12 21:57N 41°08' E 004°04'612.6
2017-Oct-12 21:30N 41°09' E 004°12'712.5
2017-Oct-12 20:59N 41°09' E 004°20'5312.6
2017-Oct-12 16:48N 41°12' E 005°30'412.1
2017-Oct-12 16:30N 41°12' E 005°35'611.8
2017-Oct-12 16:00N 41°12' E 005°43'611.9
2017-Oct-12 15:30N 41°12' E 005°51'612.0
2017-Oct-12 15:00N 41°13' E 005°59'612.7
2017-Oct-12 14:30N 41°13' E 006°07'714.8
2017-Oct-12 14:00N 41°13' E 006°17'177 4.7
2017-Oct-11 00:00N 42°30' E 009°52'918.9
2017-Oct-10 23:30N 42°38' E 009°46'918.9
2017-Oct-10 23:00N 42°47' E 009°42'918.8
2017-Oct-10 22:30N 42°56' E 009°37'918.4
2017-Oct-10 22:00N 43°04' E 009°34'815.9
2017-Oct-10 21:30N 43°11' E 009°28'613.0
2017-Oct-10 21:01N 43°17' E 009°23'612.8
2017-Oct-10 20:30N 43°22' E 009°19'713.0
2017-Oct-10 20:00N 43°28' E 009°14'713.1
2017-Oct-10 19:31N 43°33' E 009°09'  
Track history (hours):
 
Tides and Currents Weather Stations Pressure Air Temp Water Temp Dewpoint Dewpoint Depression Visibility Wind Speed Wind Dir Waves Ship Positions

Costa Favolosa

Last reported at 2017-Oct-20 19:30 UTC. Time now 2017-Oct-20 19:50 UTC.
Position N 43°13' E 009°26'.

Length 291 m; draft 8.3 m.

Type: Ship. MMSI: 247311100.

Date/timePositionNaut miles runAvg speedWind from/ knotsBaromVisibWave heightAir tempDewpointWater temp
2017-Oct-20 19:30N 43°13' E 009°26'917.9
2017-Oct-20 19:00N 43°20' E 009°20'917.5
2017-Oct-20 18:30N 43°28' E 009°14'917.5
2017-Oct-20 18:00N 43°35' E 009°08'917.7
2017-Oct-20 17:30N 43°43' E 009°02'918.0
2017-Oct-20 17:00N 43°51' E 008°56'917.7
2017-Oct-20 16:30N 43°58' E 008°50'917.6
2017-Oct-20 16:00N 44°06' E 008°44'917.8
2017-Oct-20 15:30N 44°14' E 008°37'714.4
2017-Oct-20 15:01N 44°19' E 008°31'1 1.0
2017-Oct-20 13:58N 44°19' E 008°29'0 0.0
2017-Oct-20 13:28N 44°19' E 008°29'0 0.0
2017-Oct-20 13:00N 44°19' E 008°29'0 0.0
2017-Oct-20 12:30N 44°19' E 008°29'0 0.0
2017-Oct-20 12:00N 44°19' E 008°29'0 0.0
2017-Oct-20 11:29N 44°19' E 008°29'0 0.0
2017-Oct-20 10:59N 44°19' E 008°29'0 0.0
2017-Oct-20 10:26N 44°19' E 008°29'0 0.0
2017-Oct-20 09:58N 44°19' E 008°29'0 0.0
2017-Oct-20 09:28N 44°19' E 008°29'0 0.0
2017-Oct-20 08:58N 44°19' E 008°29'0 0.0
2017-Oct-20 08:28N 44°19' E 008°29'0 0.0
2017-Oct-20 07:58N 44°19' E 008°29'0 0.0
2017-Oct-20 07:30N 44°19' E 008°29'0 0.0
2017-Oct-20 07:00N 44°19' E 008°29'0 0.0
2017-Oct-20 06:30N 44°19' E 008°29'1 1.9
2017-Oct-20 06:01N 44°19' E 008°30'4 8.1
2017-Oct-20 05:30N 44°16' E 008°33'612.9
2017-Oct-20 05:01N 44°10' E 008°31'814.9
2017-Oct-20 04:30N 44°03' E 008°25'816.8
2017-Oct-20 04:00N 43°56' E 008°20'1216.4
2017-Oct-20 03:15N 43°47' E 008°07'516.3
2017-Oct-20 02:57N 43°44' E 008°02'2916.8
2017-Oct-20 01:13N 43°27' E 007°30'417.2
2017-Oct-20 01:00N 43°25' E 007°26'917.4
2017-Oct-20 00:30N 43°19' E 007°16'917.1
2017-Oct-19 23:57N 43°14' E 007°06'7114.3
2017-Oct-19 19:00N 43°03' E 005°30'815.4
2017-Oct-19 18:30N 43°06' E 005°20'815.7
2017-Oct-19 18:00N 43°10' E 005°10'715.1
2017-Oct-19 17:30N 43°17' E 005°11'714.4
2017-Oct-19 17:00N 43°21' E 005°19'1 1.3
2017-Oct-19 16:30N 43°21' E 005°20'0 0.0
2017-Oct-19 16:00N 43°21' E 005°20'0 0.0
2017-Oct-19 15:27N 43°21' E 005°20'0 0.0
2017-Oct-19 15:00N 43°21' E 005°20'0 0.0
2017-Oct-19 14:27N 43°21' E 005°20'0 0.0
2017-Oct-19 14:00N 43°21' E 005°20'0 0.0
2017-Oct-19 13:15N 43°21' E 005°20'0 0.0
2017-Oct-19 12:57N 43°21' E 005°20'0 0.0
2017-Oct-19 12:24N 43°21' E 005°20'0 0.0
2017-Oct-19 11:57N 43°21' E 005°20'0 0.0
2017-Oct-19 11:27N 43°21' E 005°20'0 0.0
2017-Oct-19 11:00N 43°21' E 005°20'0 0.0
2017-Oct-19 10:27N 43°21' E 005°20'0 0.0
2017-Oct-19 10:00N 43°21' E 005°20'0 0.0
2017-Oct-19 09:30N 43°21' E 005°20'0 0.0
2017-Oct-19 09:00N 43°21' E 005°20'0 0.0
2017-Oct-19 08:30N 43°21' E 005°20'0 0.0
2017-Oct-19 07:48N 43°21' E 005°20'0 0.0
2017-Oct-19 07:30N 43°21' E 005°20'0 0.0
2017-Oct-19 06:45N 43°21' E 005°20'0 0.0
2017-Oct-19 06:27N 43°21' E 005°20'0 0.0
2017-Oct-19 06:00N 43°21' E 005°20'0 0.6
2017-Oct-19 05:28N 43°21' E 005°19'3 7.4
2017-Oct-19 05:00N 43°19' E 005°15'612.6
2017-Oct-19 04:30N 43°14' E 005°10'815.9
2017-Oct-19 04:00N 43°08' E 005°04'816.7
2017-Oct-19 03:30N 43°01' E 004°57'816.8
2017-Oct-19 03:01N 42°55' E 004°49'611.8
2017-Oct-19 02:30N 42°51' E 004°44'611.5
2017-Oct-19 02:01N 42°46' E 004°38'611.4
2017-Oct-19 01:30N 42°42' E 004°32'816.1
2017-Oct-19 01:00N 42°37' E 004°24'917.2
2017-Oct-19 00:30N 42°31' E 004°16'11417.5
2017-Oct-18 18:00N 41°17' E 002°19'7 0.6
2017-Oct-18 05:49N 41°19' E 002°10'3 9.0
2017-Oct-18 05:29N 41°16' E 002°12'18211.3
2017-Oct-17 13:18N 41°18' E 006°15'411.2
2017-Oct-17 12:57N 41°18' E 006°20'1911.2
2017-Oct-17 11:14N 41°18' E 006°45'1511.6
2017-Oct-17 09:59N 41°18' E 007°05'712.2
2017-Oct-17 09:27N 41°18' E 007°14'812.1
2017-Oct-17 08:47N 41°19' E 007°24'312.3
2017-Oct-17 08:30N 41°19' E 007°29'8913.6
2017-Oct-17 01:58N 41°24' E 009°27'2014.7
2017-Oct-17 00:36N 41°31' E 009°52'1012.2
2017-Oct-16 23:49N 41°35' E 010°04'412.1
2017-Oct-16 23:30N 41°37' E 010°08'712.3
2017-Oct-16 22:58N 41°39' E 010°17'1012.5
2017-Oct-16 22:12N 41°43' E 010°28'312.7
2017-Oct-16 21:59N 41°44' E 010°32'712.7
2017-Oct-16 21:26N 41°47' E 010°40'812.8
2017-Oct-16 20:50N 41°50' E 010°50'512.9
2017-Oct-16 20:26N 41°52' E 010°56'913.1
2017-Oct-16 19:46N 41°55' E 011°07'413.4
2017-Oct-16 19:28N 41°57' E 011°12'613.4
2017-Oct-16 19:00N 41°59' E 011°20'813.2
2017-Oct-16 18:23N 42°02' E 011°30'8 0.6
2017-Oct-16 04:23N 42°05' E 011°20'513.0
2017-Oct-16 04:01N 42°06' E 011°14'812.6
2017-Oct-16 03:23N 42°06' E 011°03'512.8
2017-Oct-16 02:59N 42°06' E 010°56'612.9
2017-Oct-16 02:30N 42°07' E 010°48'613.0
2017-Oct-16 02:00N 42°07' E 010°39'612.9
2017-Oct-16 01:30N 42°08' E 010°30'812.7
2017-Oct-16 00:54N 42°08' E 010°20'512.5
2017-Oct-16 00:30N 42°09' E 010°13'612.5
2017-Oct-16 00:00N 42°09' E 010°05'612.7
2017-Oct-15 23:30N 42°15' E 010°00'918.1
2017-Oct-15 23:00N 42°23' E 009°55'918.2
2017-Oct-15 22:30N 42°31' E 009°50'918.2
2017-Oct-15 22:00N 42°40' E 009°45'918.1
2017-Oct-15 21:30N 42°48' E 009°41'1018.2
2017-Oct-15 20:57N 42°58' E 009°36'817.9
2017-Oct-15 20:30N 43°05' E 009°33'917.9
2017-Oct-15 20:00N 43°13' E 009°26'917.8
2017-Oct-15 19:31N 43°20' E 009°20'917.8
2017-Oct-15 19:00N 43°28' E 009°14'917.7
2017-Oct-15 18:30N 43°35' E 009°07'917.6
2017-Oct-15 18:00N 43°43' E 009°01'917.6
2017-Oct-15 17:30N 43°51' E 008°55'917.5
2017-Oct-15 17:00N 43°58' E 008°49'917.5
2017-Oct-15 16:30N 44°06' E 008°43'917.9
2017-Oct-15 16:00N 44°13' E 008°36'714.1
2017-Oct-15 15:30N 44°19' E 008°30'1 1.8
2017-Oct-15 15:00N 44°19' E 008°29'0 0.0
2017-Oct-15 14:00N 44°19' E 008°29'0 0.0
2017-Oct-15 13:30N 44°19' E 008°29'0 0.0
2017-Oct-15 12:54N 44°19' E 008°29'0 0.0
2017-Oct-15 12:30N 44°19' E 008°29'0 0.0
2017-Oct-15 11:59N 44°19' E 008°29'0 0.0
2017-Oct-15 11:26N 44°19' E 008°29'0 0.0
2017-Oct-15 10:56N 44°19' E 008°29'0 0.0
2017-Oct-15 10:26N 44°19' E 008°29'0 0.0
2017-Oct-15 09:55N 44°19' E 008°29'0 0.0
2017-Oct-15 09:28N 44°19' E 008°29'0 0.0
2017-Oct-15 08:58N 44°19' E 008°29'0 0.0
2017-Oct-15 08:28N 44°19' E 008°29'0 0.0
2017-Oct-15 07:58N 44°19' E 008°29'0 0.0
2017-Oct-15 07:28N 44°19' E 008°29'0 0.0
2017-Oct-15 06:58N 44°19' E 008°29'0 0.0
2017-Oct-15 06:30N 44°19' E 008°29'1 2.1
2017-Oct-15 06:00N 44°19' E 008°31'510.2
2017-Oct-15 05:30N 44°14' E 008°34'917.9
2017-Oct-15 05:00N 44°06' E 008°28'917.8
2017-Oct-15 04:30N 43°59' E 008°22'714.3
2017-Oct-15 04:00N 43°52' E 008°17'713.1
2017-Oct-15 03:30N 43°48' E 008°10'612.8
2017-Oct-15 03:00N 43°45' E 008°03'1012.9
2017-Oct-15 02:13N 43°39' E 007°51'313.2
2017-Oct-15 01:57N 43°37' E 007°47'612.9
2017-Oct-15 01:30N 43°33' E 007°41'712.9
2017-Oct-15 00:56N 43°29' E 007°33'512.8
2017-Oct-15 00:30N 43°25' E 007°27'816.2
2017-Oct-15 00:00N 43°20' E 007°18'1018.0
2017-Oct-14 23:25N 43°14' E 007°06'717.5
2017-Oct-14 23:00N 43°10' E 006°59'917.5
2017-Oct-14 22:30N 43°04' E 006°49'917.3
2017-Oct-14 22:00N 42°59' E 006°40'1016.6
2017-Oct-14 21:24N 42°54' E 006°27'817.0
2017-Oct-14 20:54N 42°53' E 006°16'717.1
2017-Oct-14 20:30N 42°53' E 006°07'917.1
2017-Oct-14 19:59N 42°55' E 005°55'1717.2
2017-Oct-14 19:00N 43°01' E 005°34'1217.6
2017-Oct-14 18:18N 43°07' E 005°19'517.7
2017-Oct-14 18:00N 43°09' E 005°12'714.6
2017-Oct-14 17:30N 43°16' E 005°11'815.1
2017-Oct-14 17:00N 43°21' E 005°18'1 1.8
2017-Oct-14 16:22N 43°21' E 005°20'0 0.0
2017-Oct-14 15:58N 43°21' E 005°20'0 0.0
2017-Oct-14 15:13N 43°21' E 005°20'0 0.0
2017-Oct-14 15:01N 43°21' E 005°20'0 0.0
2017-Oct-14 14:28N 43°21' E 005°20'0 0.0
2017-Oct-14 13:58N 43°21' E 005°20'0 0.0
2017-Oct-14 13:25N 43°21' E 005°20'0 0.0
2017-Oct-14 12:57N 43°21' E 005°20'0 0.0
2017-Oct-14 12:27N 43°21' E 005°20'0 0.0
2017-Oct-14 11:54N 43°21' E 005°20'0 0.0
2017-Oct-14 11:27N 43°21' E 005°20'0 0.0
2017-Oct-14 10:57N 43°21' E 005°20'0 0.0
2017-Oct-14 10:27N 43°21' E 005°20'0 0.0
2017-Oct-14 09:57N 43°21' E 005°20'0 0.0
2017-Oct-14 09:30N 43°21' E 005°20'0 0.0
2017-Oct-14 08:57N 43°21' E 005°20'0 0.0
2017-Oct-14 08:25N 43°21' E 005°20'0 0.0
2017-Oct-14 07:55N 43°21' E 005°20'0 0.0
2017-Oct-14 07:04N 43°21' E 005°20'0 0.0
2017-Oct-14 06:43N 43°21' E 005°20'0 0.1
2017-Oct-14 06:29N 43°21' E 005°20'1 1.2
2017-Oct-14 06:00N 43°21' E 005°19'4 7.4
2017-Oct-14 05:30N 43°19' E 005°15'714.1
2017-Oct-14 05:00N 43°13' E 005°10'917.0
2017-Oct-14 04:27N 43°05' E 005°03'1118.2
2017-Oct-14 03:52N 42°57' E 004°54'818.5
2017-Oct-14 03:25N 42°51' E 004°46'818.6
2017-Oct-14 02:59N 42°45' E 004°39'2419.7
2017-Oct-14 01:45N 42°26' E 004°19'1420.8
2017-Oct-14 01:04N 42°14' E 004°07'220.9
2017-Oct-14 01:00N 42°13' E 004°06'1221.0
2017-Oct-14 00:26N 42°04' E 003°56'8920.9
2017-Oct-13 20:11N 41°13' E 002°19'421.2
2017-Oct-13 19:59N 41°12' E 002°13'1020.9
2017-Oct-13 19:30N 41°08' E 002°01'1020.9
2017-Oct-13 19:00N 41°05' E 001°48'1020.8
2017-Oct-13 18:30N 41°03' E 001°34'4 0.3
2017-Oct-13 04:41N 41°02' E 001°30'317.6
2017-Oct-13 04:30N 41°02' E 001°34'917.7
2017-Oct-13 04:00N 41°02' E 001°46'918.0
2017-Oct-13 03:30N 41°03' E 001°58'5618.0
2017-Oct-13 00:25N 41°06' E 003°11'1717.5
2017-Oct-12 23:27N 41°07' E 003°34'817.8
2017-Oct-12 23:00N 41°07' E 003°44'816.2
2017-Oct-12 22:30N 41°08' E 003°55'712.8
2017-Oct-12 21:57N 41°08' E 004°04'612.6
2017-Oct-12 21:30N 41°09' E 004°12'712.5
2017-Oct-12 20:59N 41°09' E 004°20'5312.6
2017-Oct-12 16:48N 41°12' E 005°30'412.1
2017-Oct-12 16:30N 41°12' E 005°35'611.8
2017-Oct-12 16:00N 41°12' E 005°43'611.9
2017-Oct-12 15:30N 41°12' E 005°51'612.0
2017-Oct-12 15:00N 41°13' E 005°59'612.7
2017-Oct-12 14:30N 41°13' E 006°07'714.8
2017-Oct-12 14:00N 41°13' E 006°17'177 4.7
2017-Oct-11 00:00N 42°30' E 009°52'918.9
2017-Oct-10 23:30N 42°38' E 009°46'918.9
2017-Oct-10 23:00N 42°47' E 009°42'918.8
2017-Oct-10 22:30N 42°56' E 009°37'918.4
2017-Oct-10 22:00N 43°04' E 009°34'815.9
2017-Oct-10 21:30N 43°11' E 009°28'613.0
2017-Oct-10 21:01N 43°17' E 009°23'612.8
2017-Oct-10 20:30N 43°22' E 009°19'713.0
2017-Oct-10 20:00N 43°28' E 009°14'713.1
2017-Oct-10 19:31N 43°33' E 009°09'  

Dump ship's entire track history